createdAt,value
2023-05-21T18:34:28.493Z,22.67
2023-05-21T18:57:02.331Z,22.44
2023-05-21T19:00:00.258Z,22.53
2023-05-21T19:03:29.637Z,22.55
2023-05-21T19:12:24.371Z,22.46
2023-05-21T19:16:31.973Z,22.31
2023-05-21T19:19:46.015Z,22.36
2023-05-21T19:23:29.428Z,22.27
2023-05-21T19:26:23.206Z,22.43
2023-05-21T19:29:48.441Z,22.37
2023-05-21T19:36:20.300Z,22.46
2023-05-21T19:39:14.124Z,22.29
2023-05-21T19:42:10.987Z,22.40
2023-05-21T19:45:25.960Z,22.28
2023-05-21T19:52:36.022Z,22.32
2023-05-21T19:55:23.271Z,22.43
2023-05-21T19:58:13.853Z,22.39
2023-05-21T20:01:23.025Z,22.23
2023-05-21T20:04:21.994Z,22.33
2023-05-21T20:12:35.789Z,22.14
2023-05-21T20:30:08.296Z,22.15
2023-05-21T20:33:01.813Z,22.09
2023-05-21T20:35:57.876Z,22.04
2023-05-21T20:39:35.396Z,22.07
2023-05-21T20:43:24.084Z,22.06
2023-05-21T20:46:23.764Z,21.98
2023-05-21T20:49:19.973Z,21.88
2023-05-21T20:52:31.001Z,21.91
2023-05-21T21:04:55.451Z,21.79
2023-05-21T21:08:18.623Z,21.59
2023-05-21T21:14:55.478Z,21.46
2023-05-21T21:41:47.762Z,21.16
2023-05-21T21:44:48.487Z,21.16
2023-05-21T21:48:07.056Z,21.07
2023-05-21T21:55:27.940Z,21.02
2023-05-21T21:59:59.430Z,21.17
2023-05-21T22:03:39.189Z,21.02
2023-05-21T22:06:50.880Z,20.96
2023-05-21T22:10:05.608Z,20.90
2023-05-21T22:13:03.139Z,21.03
2023-05-21T22:15:58.261Z,21.04
2023-05-21T22:18:46.508Z,21.01
2023-05-21T22:21:37.507Z,20.97
2023-05-21T22:24:39.540Z,21.02
2023-05-21T22:27:37.205Z,21.01
2023-05-21T22:30:34.159Z,21.01
2023-05-21T22:33:22.262Z,21.02
2023-05-21T22:36:10.302Z,20.99
2023-05-21T22:39:05.892Z,21.07
2023-05-21T22:42:08.524Z,21.06
2023-05-21T22:45:09.766Z,20.95
2023-05-21T22:47:57.702Z,20.95
2023-05-21T22:51:01.769Z,20.91
2023-05-21T22:57:56.337Z,20.99
2023-05-21T23:01:43.954Z,20.79
2023-05-21T23:04:47.127Z,20.88
2023-05-21T23:07:41.098Z,20.84
2023-05-21T23:10:42.887Z,20.76
2023-05-21T23:13:40.485Z,20.76
2023-05-21T23:16:28.014Z,20.83
2023-05-21T23:19:21.908Z,20.86
2023-05-21T23:22:09.587Z,20.90
2023-05-21T23:25:00.102Z,20.86
2023-05-21T23:27:47.764Z,20.77
2023-05-21T23:30:35.693Z,20.77
2023-05-21T23:33:23.628Z,20.67
2023-05-21T23:36:11.183Z,20.80
2023-05-21T23:39:01.730Z,20.76
2023-05-21T23:41:49.288Z,20.77
2023-05-21T23:44:39.531Z,20.65
2023-05-21T23:48:08.762Z,20.52
2023-05-21T23:51:03.763Z,20.59
2023-05-21T23:54:01.769Z,20.66
2023-05-21T23:57:01.526Z,20.63
2023-05-21T23:59:51.740Z,20.57
